Time;durP1;ratioP1;P1;durP2;ratioP2;P2;SDS_P1;SDS_P2;PMS_P1;PMS_P2;Temp;Humidity;BMP_temperature;BMP_pressure;BME280_temperature;BME280_humidity;BME280_pressure;Samples;Min_cycle;Max_cycle;Signal;HPM_P1;HPM_P2
2024/03/12 00:00:19;;;;;;;11.38;7.43;;;;;;;5.69;77.81;98176.41;5066770;28;20028;-77
2024/03/12 00:02:48;;;;;;;10.20;7.22;;;;;;;5.61;78.44;98165.38;5065109;28;20025;-77
2024/03/12 00:05:20;;;;;;;12.40;8.60;;;;;;;5.63;77.62;98164.13;5063352;28;20478;-78
2024/03/12 00:07:47;;;;;;;10.13;7.72;;;;;;;5.50;78.38;98158.28;5044570;28;20071;-77
2024/03/12 00:10:19;;;;;;;11.75;7.72;;;;;;;5.60;77.63;98171.72;5066999;28;20066;-77
2024/03/12 00:12:49;;;;;;;8.90;6.57;;;;;;;5.58;78.11;98165.84;5061971;28;20085;-77
2024/03/12 00:15:19;;;;;;;8.43;6.70;;;;;;;5.50;78.29;98177.59;5068350;28;20032;-77
2024/03/12 00:17:47;;;;;;;12.02;6.45;;;;;;;5.39;78.38;98170.47;5069159;28;20123;-78
2024/03/12 00:20:17;;;;;;;11.45;6.93;;;;;;;5.46;77.86;98159.78;5064751;28;20470;-78
2024/03/12 00:22:47;;;;;;;11.77;7.18;;;;;;;5.50;77.88;98179.44;5064436;28;20154;-78
2024/03/12 00:25:20;;;;;;;14.02;7.57;;;;;;;5.36;78.37;98178.06;5065869;28;20021;-78
2024/03/12 00:27:46;;;;;;;9.20;6.82;;;;;;;5.25;79.34;98184.97;5065357;28;20048;-78
2024/03/12 00:30:13;;;;;;;9.27;5.95;;;;;;;5.31;79.45;98176.09;5065221;28;20032;-78
2024/03/12 00:32:43;;;;;;;10.88;7.10;;;;;;;5.29;79.28;98184.28;5044341;28;20155;-78
2024/03/12 00:35:12;;;;;;;11.68;6.72;;;;;;;5.22;80.22;98188.88;5064540;28;20610;-78
2024/03/12 00:37:41;;;;;;;11.63;6.82;;;;;;;5.22;79.79;98180.16;5063305;28;20032;-78
2024/03/12 00:40:11;;;;;;;9.55;6.78;;;;;;;5.37;79.57;98175.19;5063066;28;20047;-78
2024/03/12 00:42:41;;;;;;;10.65;6.80;;;;;;;5.47;79.80;98180.69;5061018;28;20032;-78
2024/03/12 00:45:11;;;;;;;10.30;7.15;;;;;;;5.54;79.41;98183.22;5062508;28;20024;-78
2024/03/12 00:47:42;;;;;;;11.10;7.13;;;;;;;5.52;79.56;98172.06;5067329;28;20040;-78
2024/03/12 00:50:11;;;;;;;12.75;7.70;;;;;;;5.50;79.28;98193.50;5070615;28;20174;-78
2024/03/12 00:52:37;;;;;;;9.32;6.68;;;;;;;5.57;79.72;98186.19;5065644;28;20125;-78
2024/03/12 00:55:09;;;;;;;10.93;7.28;;;;;;;5.61;79.41;98197.97;5069689;28;20110;-78
2024/03/12 00:57:38;;;;;;;12.75;7.35;;;;;;;5.51;79.00;98170.44;5068607;28;20035;-78
2024/03/12 01:00:16;;;;;;;12.82;7.75;;;;;;;5.65;78.77;98193.00;5063215;28;20077;-78
2024/03/12 01:02:49;;;;;;;13.20;8.07;;;;;;;5.57;79.19;98196.00;5066181;28;20686;-78
2024/03/12 01:05:20;;;;;;;9.82;6.80;;;;;;;5.65;79.43;98199.09;5069219;28;20067;-78
2024/03/12 01:07:47;;;;;;;9.45;6.65;;;;;;;5.57;79.63;98210.03;5071208;28;20040;-77
2024/03/12 01:10:13;;;;;;;11.60;7.70;;;;;;;5.59;78.78;98212.47;5052737;28;20501;-77
2024/03/12 01:12:39;;;;;;;12.85;7.38;;;;;;;5.47;79.16;98203.72;5048987;28;20047;-77
2024/03/12 01:15:08;;;;;;;11.90;7.22;;;;;;;5.23;80.15;98219.59;5067844;28;20492;-77
2024/03/12 01:17:34;;;;;;;13.18;8.30;;;;;;;5.42;79.08;98206.28;5068101;28;20028;-77
2024/03/12 01:19:59;;;;;;;14.75;7.28;;;;;;;4.66;81.14;98206.28;5067660;28;20035;-77
2024/03/12 01:22:24;;;;;;;12.00;6.90;;;;;;;4.39;83.15;98214.59;5047598;28;20134;-77
2024/03/12 01:24:51;;;;;;;10.55;7.72;;;;;;;4.88;83.10;98212.66;5063143;28;20125;-77
2024/03/12 01:27:17;;;;;;;14.25;8.35;;;;;;;5.32;80.30;98215.59;5067698;28;20039;-77
2024/03/12 01:29:43;;;;;;;9.73;7.18;;;;;;;5.25;80.13;98214.06;5071538;28;20037;-77
2024/03/12 01:32:09;;;;;;;14.25;6.97;;;;;;;5.46;79.50;98216.13;5066080;28;20157;-76
2024/03/12 01:34:34;;;;;;;10.93;6.60;;;;;;;5.52;78.56;98215.22;5064511;28;20559;-77
2024/03/12 01:37:00;;;;;;;11.13;7.07;;;;;;;5.51;78.83;98218.91;5065347;28;20044;-77
2024/03/12 01:39:26;;;;;;;10.82;7.20;;;;;;;5.33;78.32;98209.25;5073304;28;20051;-77
2024/03/12 01:41:52;;;;;;;12.85;8.00;;;;;;;5.45;78.74;98221.66;5070805;28;20050;-77
2024/03/12 01:44:18;;;;;;;12.45;7.65;;;;;;;5.36;78.56;98223.84;5064705;28;20024;-77
2024/03/12 01:46:45;;;;;;;10.30;6.85;;;;;;;5.35;79.67;98224.91;5065320;28;20039;-78
2024/03/12 01:49:13;;;;;;;9.65;6.50;;;;;;;5.37;79.67;98216.72;5064713;28;20036;-77
2024/03/12 01:51:38;;;;;;;11.60;7.22;;;;;;;5.34;78.86;98225.94;5062937;28;20028;-77
2024/03/12 01:54:04;;;;;;;13.32;6.90;;;;;;;5.28;79.63;98222.38;5063566;28;20030;-77
2024/03/12 01:56:30;;;;;;;14.90;7.72;;;;;;;5.23;79.87;98224.91;5066968;28;20077;-77
2024/03/12 01:58:59;;;;;;;10.02;7.07;;;;;;;5.28;79.30;98221.56;5071150;28;20036;-77
2024/03/12 02:01:25;;;;;;;11.20;6.53;;;;;;;5.35;79.38;98227.56;5068028;28;20035;-77
2024/03/12 02:03:54;;;;;;;9.30;6.75;;;;;;;5.29;79.38;98231.91;5069326;28;20031;-76
2024/03/12 02:06:23;;;;;;;11.95;7.40;;;;;;;5.17;79.85;98219.72;5067397;28;20032;-76
2024/03/12 02:08:51;;;;;;;9.65;6.80;;;;;;;5.22;79.78;98223.28;5065918;28;20412;-76
2024/03/12 02:11:17;;;;;;;14.88;7.13;;;;;;;5.24;79.88;98231.00;5063778;28;20033;-76
2024/03/12 02:13:42;;;;;;;11.88;7.30;;;;;;;5.21;80.50;98234.09;5047613;28;20078;-76
2024/03/12 02:16:09;;;;;;;15.20;7.60;;;;;;;5.18;80.29;98213.38;5066082;28;20056;-76
2024/03/12 02:18:35;;;;;;;12.77;8.02;;;;;;;5.14;80.52;98225.44;5068201;28;20032;-76
2024/03/12 02:21:03;;;;;;;12.38;7.82;;;;;;;5.22;79.75;98227.78;5066410;28;20047;-77
2024/03/12 02:23:42;;;;;;;11.30;7.78;;;;;;;5.18;80.54;98238.00;5050696;28;20028;-77
2024/03/12 02:26:09;;;;;;;11.30;6.80;;;;;;;5.17;81.19;98232.94;5067350;28;20032;-77
2024/03/12 02:28:36;;;;;;;13.70;8.20;;;;;;;5.24;79.88;98237.06;5067600;28;20032;-77
2024/03/12 02:31:02;;;;;;;10.10;7.75;;;;;;;5.20;80.16;98220.03;5065141;28;20033;-76
2024/03/12 02:33:27;;;;;;;9.10;7.07;;;;;;;5.16;79.55;98244.53;5067852;28;20024;-77
2024/03/12 02:35:53;;;;;;;13.30;8.40;;;;;;;5.20;80.29;98235.91;5070030;28;20097;-77
2024/03/12 02:38:19;;;;;;;10.77;7.78;;;;;;;5.13;80.30;98223.84;5061657;22;20074;-80
2024/03/12 02:40:47;;;;;;;12.02;6.70;;;;;;;5.15;80.47;98249.03;5112260;28;20074;-80
2024/03/12 02:43:13;;;;;;;14.60;8.15;;;;;;;5.16;80.64;98252.47;5113589;28;20486;-80
2024/03/12 02:45:39;;;;;;;11.90;7.78;;;;;;;5.06;80.11;98241.66;5118967;28;20036;-80
2024/03/12 02:48:05;;;;;;;10.38;7.10;;;;;;;5.19;79.51;98241.44;5115169;28;20083;-80
2024/03/12 02:50:31;;;;;;;8.98;6.63;;;;;;;5.17;79.64;98244.34;5096397;28;20066;-80
2024/03/12 02:52:56;;;;;;;11.38;7.32;;;;;;;5.16;79.31;98249.81;5095890;28;20084;-80
2024/03/12 02:55:22;;;;;;;11.95;6.60;;;;;;;5.23;79.97;98253.19;5098303;28;20111;-80
2024/03/12 02:57:47;;;;;;;13.00;7.38;;;;;;;5.22;80.02;98248.94;5093803;28;20036;-82
2024/03/12 03:00:14;;;;;;;10.85;7.20;;;;;;;5.21;80.28;98255.25;5093561;28;20035;-82
2024/03/12 03:02:43;;;;;;;12.07;8.25;;;;;;;5.15;80.60;98259.63;5086972;28;20052;-80
2024/03/12 03:05:11;;;;;;;9.88;7.60;;;;;;;5.12;80.98;98260.06;5089334;28;20127;-79
2024/03/12 03:07:36;;;;;;;10.40;7.32;;;;;;;5.16;81.65;98253.28;5087291;28;20034;-79
2024/03/12 03:10:06;;;;;;;11.13;7.78;;;;;;;5.11;81.22;98247.88;5090355;28;20115;-80
2024/03/12 03:12:31;;;;;;;13.50;7.65;;;;;;;5.20;81.00;98257.09;5088667;28;20393;-81
2024/03/12 03:14:56;;;;;;;12.45;7.65;;;;;;;5.15;81.23;98256.16;5085718;28;20084;-82
2024/03/12 03:17:22;;;;;;;11.90;7.80;;;;;;;5.22;81.27;98260.31;5087430;28;20522;-81
2024/03/12 03:19:50;;;;;;;12.23;7.88;;;;;;;5.29;80.83;98261.00;5086702;28;20039;-82
2024/03/12 03:22:16;;;;;;;13.05;7.68;;;;;;;5.33;81.62;98253.41;5085662;28;20032;-81
2024/03/12 03:24:42;;;;;;;13.30;8.88;;;;;;;5.11;82.49;98262.94;5082874;28;20532;-81
2024/03/12 03:27:08;;;;;;;11.13;7.68;;;;;;;5.02;82.86;98269.59;5089760;28;20476;-80
2024/03/12 03:29:35;;;;;;;11.88;8.57;;;;;;;5.40;81.13;98264.69;5085541;28;20039;-81
2024/03/12 03:32:02;;;;;;;12.23;6.93;;;;;;;5.46;81.34;98255.81;5085644;28;20039;-82
2024/03/12 03:34:28;;;;;;;12.30;7.25;;;;;;;5.53;81.49;98261.81;5087668;28;20028;-81
2024/03/12 03:36:57;;;;;;;11.73;8.25;;;;;;;5.45;81.61;98258.72;5090683;28;20395;-82
2024/03/12 03:39:26;;;;;;;11.15;7.15;;;;;;;5.51;80.83;98253.31;5090181;28;20023;-81
2024/03/12 03:41:52;;;;;;;11.35;7.63;;;;;;;5.59;81.09;98266.19;5088147;28;20024;-81
2024/03/12 03:44:18;;;;;;;11.57;7.28;;;;;;;5.65;81.40;98265.28;5086088;28;20028;-81
2024/03/12 03:46:44;;;;;;;9.55;7.07;;;;;;;5.63;80.81;98262.06;5083572;28;20488;-80
2024/03/12 03:49:10;;;;;;;14.35;8.48;;;;;;;5.64;80.37;98258.38;5085912;28;20468;-80
2024/03/12 03:51:36;;;;;;;9.90;7.53;;;;;;;5.72;80.42;98257.22;5088810;28;20084;-81
2024/03/12 03:54:02;;;;;;;10.57;6.90;;;;;;;5.48;81.91;98272.31;5083789;28;20020;-80
2024/03/12 03:56:27;;;;;;;11.98;8.18;;;;;;;5.43;82.19;98266.88;5086916;28;20035;-81
2024/03/12 03:58:56;;;;;;;12.00;7.22;;;;;;;5.64;81.55;98266.31;5081438;28;20124;-80
2024/03/12 04:01:23;;;;;;;12.77;8.32;;;;;;;5.47;81.51;98248.69;5085105;28;20074;-80
2024/03/12 04:03:51;;;;;;;11.43;7.55;;;;;;;5.44;81.48;98260.53;5085241;28;20061;-79
2024/03/12 04:06:21;;;;;;;10.40;7.22;;;;;;;5.70;80.90;98277.84;5084082;28;20047;-77
2024/03/12 04:08:49;;;;;;;9.93;7.82;;;;;;;5.51;81.92;98268.38;5089456;28;20040;-78
2024/03/12 04:11:14;;;;;;;10.18;6.97;;;;;;;5.57;81.28;98278.06;5088272;28;20725;-78
2024/03/12 04:13:43;;;;;;;12.60;7.32;;;;;;;5.56;81.55;98277.25;5087891;28;20024;-81
2024/03/12 04:16:08;;;;;;;12.38;8.20;;;;;;;5.70;81.54;98275.19;5086126;28;20031;-81
2024/03/12 04:18:34;;;;;;;11.10;6.90;;;;;;;5.61;81.85;98295.09;5089916;28;20119;-81
2024/03/12 04:21:00;;;;;;;12.55;7.57;;;;;;;5.38;82.47;98295.88;5087730;28;20024;-78
2024/03/12 04:23:25;;;;;;;12.45;7.13;;;;;;;5.69;81.23;98292.09;5085873;28;20498;-78
2024/03/12 04:25:51;;;;;;;11.13;7.00;;;;;;;5.97;81.02;98294.88;5085729;28;20050;-79
2024/03/12 04:28:19;;;;;;;10.68;7.30;;;;;;;5.97;80.26;98295.69;5089165;28;20028;-78
2024/03/12 04:30:45;;;;;;;10.93;7.03;;;;;;;5.87;80.94;98282.22;5090682;28;20042;-78
2024/03/12 04:33:11;;;;;;;9.82;7.45;;;;;;;6.03;80.33;98297.38;5085253;28;20117;-79
2024/03/12 04:35:37;;;;;;;9.60;6.72;;;;;;;5.91;80.19;98288.66;5091065;28;20038;-79
2024/03/12 04:38:02;;;;;;;11.45;7.65;;;;;;;5.89;80.84;98303.97;5070324;28;20028;-79
2024/03/12 04:40:28;;;;;;;11.50;7.57;;;;;;;5.92;80.62;98302.69;5093867;28;20051;-79
2024/03/12 04:42:53;;;;;;;11.48;7.70;;;;;;;5.85;80.87;98297.50;5094670;28;20044;-80
2024/03/12 04:45:20;;;;;;;12.63;7.25;;;;;;;5.86;81.25;98291.19;5088559;28;21204;-79
2024/03/12 04:47:46;;;;;;;10.77;7.55;;;;;;;5.92;81.79;98313.28;5093517;28;20024;-80
2024/03/12 04:50:14;;;;;;;10.50;7.15;;;;;;;5.90;81.31;98316.16;5089658;28;20071;-80
2024/03/12 04:52:42;;;;;;;18.27;7.55;;;;;;;5.88;81.72;98320.91;5094006;28;20053;-80
2024/03/12 04:55:08;;;;;;;10.70;6.70;;;;;;;5.83;81.37;98314.66;5090963;28;20030;-78
2024/03/12 04:57:35;;;;;;;10.68;7.40;;;;;;;5.75;81.51;98317.63;5093276;28;20024;-78
2024/03/12 05:00:00;;;;;;;10.18;7.25;;;;;;;5.98;81.34;98333.56;5090240;28;20058;-82
2024/03/12 05:02:26;;;;;;;14.98;8.52;;;;;;;5.76;81.96;98333.31;5064344;28;20544;-77
2024/03/12 05:04:51;;;;;;;16.02;8.77;;;;;;;5.69;81.56;98324.66;5088688;28;20036;-77
2024/03/12 05:07:17;;;;;;;10.45;7.07;;;;;;;5.69;83.48;98345.03;5086624;28;20093;-76
2024/03/12 05:09:42;;;;;;;11.80;8.40;;;;;;;5.64;83.26;98340.44;5087190;28;20040;-76
2024/03/12 05:12:08;;;;;;;10.98;7.70;;;;;;;5.92;82.04;98348.53;5084019;28;20100;-76
2024/03/12 05:14:33;;;;;;;12.27;8.02;;;;;;;5.86;82.72;98344.16;5080664;28;20035;-77
2024/03/12 05:16:59;;;;;;;13.55;8.35;;;;;;;5.81;82.20;98359.88;5085540;28;20046;-77
2024/03/12 05:19:25;;;;;;;18.00;10.68;;;;;;;5.01;87.36;98356.06;5081025;28;20116;-76
2024/03/12 05:21:50;;;;;;;10.77;8.48;;;;;;;5.66;84.12;98367.47;5082258;28;20028;-77
2024/03/12 05:24:17;;;;;;;13.07;7.95;;;;;;;5.69;83.97;98366.22;5085255;28;20056;-78
2024/03/12 05:26:44;;;;;;;12.98;8.70;;;;;;;5.60;83.08;98357.00;5082945;28;21751;-77
2024/03/12 05:29:12;;;;;;;14.77;9.13;;;;;;;5.45;84.57;98370.69;5081308;28;21000;-76
2024/03/12 05:31:38;;;;;;;10.63;7.47;;;;;;;6.04;82.03;98367.06;5082894;28;20499;-77
2024/03/12 05:34:14;;;;;;;10.40;8.00;;;;;;;6.16;80.96;98365.22;5082843;28;20042;-77
2024/03/12 05:36:47;;;;;;;11.60;8.32;;;;;;;6.05;81.56;98371.31;5082714;28;20040;-77
2024/03/12 05:39:26;;;;;;;14.63;9.68;;;;;;;6.12;81.00;98371.19;5084353;28;20032;-77
2024/03/12 05:50:16;;;;;;;13.32;7.82;;;;;;;6.01;81.49;98351.63;5088137;28;20621;-77
2024/03/12 05:52:45;;;;;;;12.85;8.13;;;;;;;6.00;81.26;98352.69;5079639;28;20037;-78
2024/03/12 05:55:11;;;;;;;15.13;9.10;;;;;;;5.89;81.80;98374.69;5082879;28;20059;-77
2024/03/12 05:57:36;;;;;;;17.52;9.98;;;;;;;6.10;82.03;98381.22;5083362;28;20024;-77
2024/03/12 06:00:08;;;;;;;15.45;10.35;;;;;;;5.86;82.69;98383.88;5084659;28;20063;-77
2024/03/12 06:02:33;;;;;;;11.60;8.73;;;;;;;5.99;81.18;98377.53;5087368;28;20055;-78
2024/03/12 06:04:59;;;;;;;14.57;8.55;;;;;;;6.12;81.85;98393.22;5086480;28;20089;-77
2024/03/12 06:07:24;;;;;;;11.80;8.20;;;;;;;6.18;81.25;98386.97;5071428;28;20131;-79
2024/03/12 06:09:51;;;;;;;14.60;8.63;;;;;;;6.03;82.62;98389.28;5088409;28;20039;-79
2024/03/12 06:12:18;;;;;;;13.10;9.05;;;;;;;6.12;81.84;98397.69;5090166;28;20447;-77
2024/03/12 06:14:43;;;;;;;11.88;9.57;;;;;;;6.10;82.46;98397.13;5089764;28;20111;-78
2024/03/12 06:17:08;;;;;;;12.15;8.65;;;;;;;6.06;82.38;98404.72;5086298;28;20119;-78
2024/03/12 06:19:34;;;;;;;15.45;10.15;;;;;;;6.04;82.60;98402.31;5088044;28;20062;-77
2024/03/12 06:21:59;;;;;;;11.90;8.57;;;;;;;6.12;81.57;98405.63;5087179;28;20124;-77
2024/03/12 06:24:24;;;;;;;13.73;10.02;;;;;;;6.09;82.98;98399.00;5080380;28;20375;-77
2024/03/12 06:26:50;;;;;;;13.48;10.15;;;;;;;6.14;82.39;98395.66;5086270;28;20028;-77
2024/03/12 06:29:16;;;;;;;17.13;10.95;;;;;;;6.16;82.18;98399.66;5084119;28;20043;-77
2024/03/12 06:31:41;;;;;;;14.18;9.20;;;;;;;6.21;81.41;98391.00;5090501;28;20268;-78
2024/03/12 06:34:07;;;;;;;15.68;9.25;;;;;;;6.00;82.25;98418.91;5088052;28;20060;-78
2024/03/12 06:36:33;;;;;;;14.45;9.32;;;;;;;6.01;82.61;98405.41;5092234;28;20028;-78
2024/03/12 06:38:58;;;;;;;13.70;8.55;;;;;;;6.05;83.36;98413.69;5092914;28;20036;-78
2024/03/12 06:41:24;;;;;;;13.52;10.10;;;;;;;5.99;83.32;98414.63;5092934;28;20425;-78
2024/03/12 06:43:49;;;;;;;16.15;10.35;;;;;;;6.07;83.87;98426.75;5091492;28;20024;-79
2024/03/12 06:46:19;;;;;;;15.48;10.40;;;;;;;6.03;83.18;98423.72;5093903;28;20047;-78
2024/03/12 06:48:46;;;;;;;15.50;10.65;;;;;;;6.07;83.96;98426.75;5095588;28;20032;-78
2024/03/12 06:51:11;;;;;;;17.15;11.02;;;;;;;6.12;83.38;98432.13;5093883;28;20032;-77
2024/03/12 06:53:37;;;;;;;17.35;9.85;;;;;;;6.25;82.93;98435.38;5095437;28;20085;-78
2024/03/12 06:56:05;;;;;;;17.67;10.88;;;;;;;6.05;83.12;98414.50;5094365;28;20039;-78
2024/03/12 06:58:31;;;;;;;14.38;10.50;;;;;;;6.11;83.26;98423.41;5094980;28;20551;-78
2024/03/12 07:00:57;;;;;;;12.63;10.07;;;;;;;6.25;82.76;98438.03;5093813;28;20083;-77
2024/03/12 07:03:24;;;;;;;18.83;10.82;;;;;;;6.20;83.33;98426.50;5091549;28;20107;-76
2024/03/12 07:05:50;;;;;;;15.18;10.68;;;;;;;6.24;84.37;98435.59;5092107;28;20024;-76
2024/03/12 07:08:17;;;;;;;15.38;10.38;;;;;;;6.33;83.27;98439.53;5092469;28;20376;-76
2024/03/12 07:10:43;;;;;;;18.80;11.35;;;;;;;6.29;82.84;98425.13;5091076;28;20024;-76
2024/03/12 07:13:09;;;;;;;19.73;11.27;;;;;;;6.34;83.74;98449.88;5087711;28;20563;-79
2024/03/12 07:15:40;;;;;;;16.58;10.90;;;;;;;6.07;84.35;98438.16;5085957;28;20052;-76
2024/03/12 07:18:06;;;;;;;15.48;11.30;;;;;;;6.30;84.95;98453.22;5092418;28;20392;-76
2024/03/12 07:20:34;;;;;;;16.55;11.43;;;;;;;6.44;83.48;98457.28;5080667;28;20051;-77
2024/03/12 07:23:03;;;;;;;15.95;11.02;;;;;;;6.39;84.78;98451.84;5088768;28;20055;-76
2024/03/12 07:25:30;;;;;;;17.67;12.25;;;;;;;6.38;84.16;98459.00;5088337;28;20084;-76
2024/03/12 07:27:58;;;;;;;14.70;10.48;;;;;;;6.51;82.56;98457.97;5087142;28;20032;-76
2024/03/12 07:30:24;;;;;;;19.40;11.52;;;;;;;6.51;83.48;98456.09;5089740;28;20056;-78
2024/03/12 07:32:51;;;;;;;19.88;11.77;;;;;;;6.53;83.51;98469.94;5087945;28;20852;-76
2024/03/12 07:35:17;;;;;;;21.00;12.98;;;;;;;6.60;82.70;98456.56;5084409;28;20028;-76
2024/03/12 07:37:43;;;;;;;18.02;11.85;;;;;;;6.58;83.89;98466.59;5084815;28;20119;-77
2024/03/12 07:40:09;;;;;;;19.13;11.18;;;;;;;6.51;83.71;98465.91;5090936;28;20106;-77
2024/03/12 07:42:36;;;;;;;15.15;10.63;;;;;;;6.73;82.36;98465.06;5089042;28;20564;-77
2024/03/12 07:45:01;;;;;;;21.77;12.75;;;;;;;6.56;85.24;98473.97;5080539;28;20139;-76
2024/03/12 07:47:29;;;;;;;18.80;12.23;;;;;;;6.53;86.09;98466.50;5085194;28;20118;-77
2024/03/12 07:49:54;;;;;;;18.77;12.00;;;;;;;6.84;83.51;98460.00;5088956;28;20043;-76
2024/03/12 07:52:20;;;;;;;19.30;12.75;;;;;;;6.81;83.81;98471.88;5085947;28;20064;-77
2024/03/12 07:54:45;;;;;;;15.88;11.50;;;;;;;6.94;82.90;98466.31;5091209;28;20028;-77
2024/03/12 07:57:11;;;;;;;17.25;11.60;;;;;;;6.97;82.96;98476.44;5087687;28;20039;-77
2024/03/12 07:59:36;;;;;;;17.13;11.55;;;;;;;6.87;82.36;98481.56;5086776;28;20080;-77
2024/03/12 08:02:11;;;;;;;16.00;11.05;;;;;;;6.78;82.98;98470.50;5085728;28;20036;-77
2024/03/12 08:04:42;;;;;;;17.25;10.95;;;;;;;6.89;83.09;98479.47;5087908;28;20042;-77
2024/03/12 08:07:09;;;;;;;17.92;11.25;;;;;;;6.87;83.22;98478.09;5086832;28;20040;-77
2024/03/12 08:09:34;;;;;;;18.13;11.98;;;;;;;6.94;83.36;98478.78;5089021;28;20028;-76
2024/03/12 08:12:00;;;;;;;16.98;12.15;;;;;;;7.00;83.01;98477.81;5086727;28;20039;-77
2024/03/12 08:14:27;;;;;;;17.10;12.20;;;;;;;7.00;83.17;98486.59;5087237;28;20028;-76
2024/03/12 08:16:52;;;;;;;16.70;11.18;;;;;;;7.04;83.25;98481.63;5087745;28;20027;-77
2024/03/12 08:19:18;;;;;;;16.13;11.95;;;;;;;7.00;82.54;98491.91;5089775;28;20050;-76
2024/03/12 08:21:43;;;;;;;18.60;12.77;;;;;;;6.87;83.24;98465.63;5090908;28;20028;-76
2024/03/12 08:24:10;;;;;;;17.15;12.63;;;;;;;6.98;83.71;98494.00;5090476;28;20395;-76
2024/03/12 08:26:37;;;;;;;20.20;13.55;;;;;;;7.03;83.71;98490.63;5088271;28;20528;-76
2024/03/12 08:29:03;;;;;;;18.83;12.48;;;;;;;7.08;83.07;98491.53;5101862;28;20024;-76
2024/03/12 08:31:28;;;;;;;21.45;12.75;;;;;;;7.19;82.33;98496.00;5088367;28;20039;-76
2024/03/12 08:33:54;;;;;;;25.77;13.82;;;;;;;7.27;82.56;98500.16;5084994;28;20028;-76
2024/03/12 08:36:21;;;;;;;20.30;13.38;;;;;;;7.17;83.50;98497.28;5091147;28;20483;-76
2024/03/12 08:38:47;;;;;;;19.45;13.00;;;;;;;7.20;82.50;98489.66;5120856;22;20032;-79
2024/03/12 08:41:12;;;;;;;20.95;13.10;;;;;;;7.13;83.35;98496.13;5091359;28;20043;-76
2024/03/12 08:43:38;;;;;;;21.45;15.13;;;;;;;7.26;82.55;98494.03;5072173;28;20063;-76
2024/03/12 08:46:06;;;;;;;22.77;15.30;;;;;;;7.19;84.25;98505.81;5086259;28;20037;-76
2024/03/12 08:48:33;;;;;;;26.00;15.57;;;;;;;7.18;83.32;98497.06;5088303;28;20036;-77
2024/03/12 08:50:58;;;;;;;22.33;14.63;;;;;;;7.38;83.03;98510.72;5073526;28;20120;-76
2024/03/12 08:53:24;;;;;;;20.13;13.98;;;;;;;7.52;82.12;98511.25;5050558;28;20115;-77
2024/03/12 08:55:49;;;;;;;24.20;15.68;;;;;;;7.48;83.74;98515.44;5079138;28;20039;-77
2024/03/12 08:58:15;;;;;;;23.70;14.25;;;;;;;7.65;81.89;98502.19;5068463;28;20032;-77
2024/03/12 09:00:43;;;;;;;19.23;13.65;;;;;;;7.83;81.05;98512.63;5029800;28;20044;-77
2024/03/12 09:03:08;;;;;;;25.02;14.77;;;;;;;7.68;81.71;98518.47;5068688;28;20499;-76
2024/03/12 09:05:34;;;;;;;20.17;13.23;;;;;;;7.91;80.79;98514.88;5067939;28;20472;-77
2024/03/12 09:08:03;;;;;;;19.83;14.45;;;;;;;7.64;82.01;98530.63;5071688;28;20040;-77
2024/03/12 09:10:29;;;;;;;26.23;14.38;;;;;;;7.65;81.85;98526.09;5071708;28;20035;-77
2024/03/12 09:12:55;;;;;;;22.48;13.07;;;;;;;7.59;81.95;98533.16;5057764;28;20037;-76
2024/03/12 09:15:21;;;;;;;24.65;14.93;;;;;;;7.46;82.63;98531.59;5068558;28;20024;-76
2024/03/12 09:17:47;;;;;;;23.83;15.93;;;;;;;7.49;84.06;98533.75;5075482;28;20042;-76
2024/03/12 09:20:12;;;;;;;24.10;14.40;;;;;;;7.40;83.74;98529.09;5065054;28;20051;-76
2024/03/12 09:22:38;;;;;;;25.83;14.20;;;;;;;7.50;83.15;98532.75;5072319;28;20540;-76
2024/03/12 09:25:05;;;;;;;25.25;15.27;;;;;;;7.55;83.33;98532.03;5067524;28;20024;-76
2024/03/12 09:27:30;;;;;;;23.80;14.60;;;;;;;7.43;83.27;98533.91;5067443;28;20048;-76
2024/03/12 09:29:56;;;;;;;27.63;15.77;;;;;;;7.60;82.59;98550.69;5072003;28;20033;-76
2024/03/12 09:32:22;;;;;;;21.52;14.32;;;;;;;7.50;82.98;98546.00;5072292;28;20498;-77
2024/03/12 09:34:47;;;;;;;24.52;14.32;;;;;;;7.38;82.74;98542.56;5084194;28;20089;-76
2024/03/12 09:37:15;;;;;;;24.02;13.88;;;;;;;7.37;83.48;98558.75;5057708;28;20037;-77
2024/03/12 09:39:44;;;;;;;24.42;15.32;;;;;;;7.45;83.35;98545.91;5051850;28;20078;-77
2024/03/12 09:42:14;;;;;;;25.17;15.15;;;;;;;7.55;84.25;98553.28;5074734;28;20040;-77
2024/03/12 09:44:41;;;;;;;24.52;14.88;;;;;;;7.59;83.37;98557.06;5073875;28;20023;-76
2024/03/12 09:47:08;;;;;;;23.75;14.05;;;;;;;7.55;82.60;98555.94;5056180;28;20492;-76
2024/03/12 09:49:35;;;;;;;25.60;15.00;;;;;;;7.60;83.02;98550.69;5067441;28;20024;-77
2024/03/12 09:52:06;;;;;;;25.98;15.00;;;;;;;7.63;83.61;98560.06;5052560;28;20024;-76
2024/03/12 09:54:34;;;;;;;21.80;13.52;;;;;;;7.68;83.21;98565.47;5079063;28;20024;-76
2024/03/12 09:57:02;;;;;;;24.15;13.88;;;;;;;7.68;83.39;98562.81;5085493;28;20032;-76
2024/03/12 09:59:27;;;;;;;27.08;14.70;;;;;;;7.70;82.74;98568.69;5047596;28;20039;-76
2024/03/12 10:01:52;;;;;;;22.33;13.38;;;;;;;7.82;82.17;98570.25;5068378;28;20094;-79
2024/03/12 10:04:18;;;;;;;25.52;15.20;;;;;;;7.88;81.89;98571.16;5079666;28;20024;-78
2024/03/12 10:06:44;;;;;;;22.63;13.88;;;;;;;7.93;81.30;98573.94;5038779;28;20515;-77
2024/03/12 10:09:17;;;;;;;24.55;14.43;;;;;;;7.77;82.69;98574.69;5058423;28;20107;-77
2024/03/12 10:11:45;;;;;;;22.67;14.18;;;;;;;7.77;82.76;98572.03;5067183;28;20038;-78
2024/03/12 10:14:16;;;;;;;23.65;14.02;;;;;;;7.72;82.44;98569.25;5073091;28;20036;-77
2024/03/12 10:16:42;;;;;;;22.42;15.50;;;;;;;7.76;82.70;98570.41;5068891;28;20039;-77
2024/03/12 10:19:09;;;;;;;25.50;15.43;;;;;;;8.03;81.56;98574.91;5057302;28;20036;-78
2024/03/12 10:21:36;;;;;;;25.83;14.60;;;;;;;8.10;81.59;98570.25;5073327;28;20032;-78
2024/03/12 10:24:13;;;;;;;28.05;15.15;;;;;;;8.04;81.45;98581.00;5070807;28;20020;-78
2024/03/12 10:26:44;;;;;;;23.05;14.25;;;;;;;8.10;81.59;98577.44;5066974;28;20048;-78
2024/03/12 10:29:12;;;;;;;23.17;14.35;;;;;;;7.97;82.54;98580.38;5070780;28;20032;-78
2024/03/12 10:31:43;;;;;;;27.80;15.50;;;;;;;7.93;82.30;98587.22;5057811;28;20024;-78
2024/03/12 10:34:11;;;;;;;21.98;13.60;;;;;;;7.92;82.49;98581.09;5076083;28;20431;-77
2024/03/12 10:36:42;;;;;;;25.27;14.52;;;;;;;8.08;81.55;98572.31;5071163;28;20488;-77
2024/03/12 10:39:12;;;;;;;24.75;14.02;;;;;;;8.19;80.79;98586.63;5072745;28;20445;-78
2024/03/12 10:41:38;;;;;;;23.05;14.40;;;;;;;8.18;81.68;98588.47;5074783;28;20036;-77
2024/03/12 10:44:10;;;;;;;23.85;15.18;;;;;;;8.15;82.13;98591.59;5055498;28;20048;-77
2024/03/12 10:46:38;;;;;;;19.88;13.57;;;;;;;8.27;80.29;98583.59;5074015;28;20392;-78
2024/03/12 10:49:10;;;;;;;23.75;14.73;;;;;;;8.44;79.94;98584.41;5076741;28;20139;-78
2024/03/12 10:51:40;;;;;;;23.48;14.13;;;;;;;8.41;80.62;98589.44;5077117;28;20036;-77
2024/03/12 10:54:07;;;;;;;23.00;14.07;;;;;;;8.34;80.23;98594.91;5089161;28;20032;-78
2024/03/12 10:56:34;;;;;;;18.85;12.40;;;;;;;8.32;80.63;98593.53;5075727;28;20039;-77
2024/03/12 10:59:00;;;;;;;22.10;14.15;;;;;;;8.35;80.96;98595.69;5075749;28;20032;-77
2024/03/12 11:01:28;;;;;;;23.52;12.48;;;;;;;8.37;79.95;98593.59;5076151;28;20040;-77
2024/03/12 11:03:58;;;;;;;19.55;13.13;;;;;;;8.45;80.60;98599.34;5084608;28;20036;-78
2024/03/12 11:06:25;;;;;;;20.50;13.40;;;;;;;8.49;80.13;98602.31;5090453;28;20028;-78
2024/03/12 11:08:51;;;;;;;21.15;12.55;;;;;;;8.45;80.65;98603.84;5060813;28;20039;-77
2024/03/12 11:11:19;;;;;;;18.75;13.07;;;;;;;8.59;80.16;98603.28;5084871;28;20040;-77
2024/03/12 11:13:45;;;;;;;14.52;11.02;;;;;;;8.65;80.17;98597.00;5076462;28;20114;-78
2024/03/12 11:16:12;;;;;;;20.20;12.48;;;;;;;8.71;78.86;98600.56;5051706;28;20536;-77
2024/03/12 11:18:41;;;;;;;17.17;11.50;;;;;;;8.90;78.92;98596.59;5074423;28;20028;-78
2024/03/12 11:21:23;;;;;;;19.70;12.18;;;;;;;8.78;78.67;98583.38;5072866;28;20169;-78
2024/03/12 11:23:49;;;;;;;18.70;11.02;;;;;;;8.95;78.10;98602.78;5064168;28;20024;-78
2024/03/12 11:26:15;;;;;;;16.33;11.40;;;;;;;8.89;78.50;98597.63;5081282;28;20036;-78
2024/03/12 11:28:51;;;;;;;21.13;11.70;;;;;;;8.88;78.35;98601.34;5058637;28;20067;-78
2024/03/12 11:31:19;;;;;;;17.65;11.45;;;;;;;8.77;78.35;98599.56;5071233;28;20028;-78
2024/03/12 11:33:52;;;;;;;19.23;11.85;;;;;;;8.74;78.29;98606.19;5071924;28;20457;-78
2024/03/12 11:36:17;;;;;;;15.95;11.10;;;;;;;8.85;79.19;98604.47;5071505;28;20028;-77